Portada
METAR-TAF:

METAR-TAF

Aeroports :

Gibraltar, Gibraltar

latitud: 36-09N, longitud: 005-21W, altitud: 5 m

Observació

L'informe es va fer fa 1 hora i 10 minuts, a les 21:50 UTC
Vent 11 kt del Oest
Temperatura 17°C
Humitat 77%
Pressió 1027 hPa
Visibilitat 10 km o més

METAR: LXGB 172150Z AUTO 27011KT 9999 // NCD 17/13 Q1027

Hora: 00:00 (23:00 UTC)

Pronòstic

L'informe es va fer fa 9 hores i 25 minuts, a les 13:35 UTC
Pronòstic vàlid del 17 a les 15 UTC al 17 a les 23 UTC
Vent 12 kt del Oest
Visibilitat 10 km o més
sense núvols per sota de 1500 mi sense presència de cumulonimbus.

TAF: LXGB 171335Z 1715/1723 27012KT CAVOK

Observacions i pronòstics meteorològics de més de 4000 aeroports (METAR i TAF).

Les estacions disponibles són els punts grocs i vermells al mapa.

Posi el ratolí al punt desitjat per veure el nom de l'estació.

Feu clic per veure les observacions i els pronòstics meteorològics.

Per canviar el mapa: feu clic els botons verds amb una creu de color negre per apropar; al botó verd amb un guió per allunyar la imatge; o en les fletxes verdes per a mapes adjacents.


METAR-TAF: